Time;durP1;ratioP1;P1;durP2;ratioP2;P2;SDS_P1;SDS_P2;PMS_P1;PMS_P2;Temp;Humidity;BMP_temperature;BMP_pressure;BME280_temperature;BME280_humidity;BME280_pressure;Samples;Min_cycle;Max_cycle;Signal;HPM_P1;HPM_P2
2021/06/15 00:02:19;;;;;;;2.60;2.40;;;19.60;25.00;;;;;;10450218;28;20237;-84
2021/06/15 00:07:24;;;;;;;3.60;2.40;;;19.40;24.90;;;;;;10450109;28;20228;-84
2021/06/15 00:12:27;;;;;;;2.73;2.50;;;19.40;25.50;;;;;;10446755;28;20244;-84
2021/06/15 00:17:30;;;;;;;3.83;2.57;;;19.40;25.30;;;;;;10452037;28;20233;-84
2021/06/15 00:22:35;;;;;;;3.60;2.40;;;19.40;25.30;;;;;;10442805;28;21177;-83
2021/06/15 00:27:38;;;;;;;2.53;2.33;;;19.40;25.80;;;;;;10447882;28;20720;-83
2021/06/15 00:32:41;;;;;;;2.70;2.50;;;19.40;26.00;;;;;;10450058;28;20235;-83
2021/06/15 00:37:46;;;;;;;2.37;2.17;;;19.40;25.40;;;;;;10451661;28;20225;-83
2021/06/15 00:42:50;;;;;;;3.93;2.70;;;19.40;25.90;;;;;;10444774;28;20267;-83
2021/06/15 00:47:55;;;;;;;2.53;2.33;;;19.40;25.40;;;;;;10444452;28;20224;-83
2021/06/15 00:52:59;;;;;;;3.93;2.80;;;19.40;25.80;;;;;;10441193;28;20262;-83
2021/06/15 00:58:03;;;;;;;2.90;2.60;;;19.20;25.80;;;;;;10443108;28;20213;-82
2021/06/15 01:03:07;;;;;;;2.87;2.57;;;19.20;25.50;;;;;;10450111;28;20308;-82
2021/06/15 01:08:20;;;;;;;3.07;2.80;;;19.10;25.70;;;;;;10446435;28;20728;-82
2021/06/15 01:13:45;;;;;;;2.47;2.27;;;19.10;26.70;;;;;;10440389;28;20229;-83
2021/06/15 01:18:54;;;;;;;3.00;2.63;;;19.00;26.40;;;;;;10444619;28;20231;-83
2021/06/15 01:24:25;;;;;;;4.20;2.70;;;18.90;26.50;;;;;;10445251;28;20225;-83
2021/06/15 01:29:34;;;;;;;3.00;2.70;;;18.80;26.50;;;;;;10443676;28;20226;-83
2021/06/15 01:34:43;;;;;;;2.60;2.40;;;18.70;26.60;;;;;;10443227;28;20237;-83
2021/06/15 01:39:50;;;;;;;3.97;2.37;;;18.70;26.90;;;;;;10442272;28;20605;-82
2021/06/15 01:45:01;;;;;;;3.03;2.33;;;18.60;27.00;;;;;;10438924;28;20228;-83
2021/06/15 01:50:07;;;;;;;3.17;2.90;;;18.60;26.80;;;;;;10452623;28;20248;-82
2021/06/15 01:55:11;;;;;;;3.03;2.77;;;18.60;26.50;;;;;;10448252;28;20239;-83
2021/06/15 02:00:18;;;;;;;3.17;2.80;;;18.50;26.50;;;;;;10442329;28;20804;-83
2021/06/15 02:05:26;;;;;;;4.77;2.77;;;18.50;26.90;;;;;;10447906;28;20582;-83
2021/06/15 02:10:33;;;;;;;3.17;2.87;;;18.50;27.10;;;;;;10444844;28;20252;-83
2021/06/15 02:15:38;;;;;;;3.13;2.83;;;18.40;26.80;;;;;;10441190;28;20237;-82
2021/06/15 02:20:43;;;;;;;3.07;2.80;;;18.40;27.00;;;;;;10444000;28;20236;-83
2021/06/15 02:25:51;;;;;;;2.70;2.50;;;18.30;27.00;;;;;;10444201;28;20605;-83
2021/06/15 02:30:59;;;;;;;3.27;2.97;;;18.20;26.80;;;;;;10439652;28;20236;-83
2021/06/15 02:36:09;;;;;;;3.77;3.40;;;18.10;27.30;;;;;;10443927;28;20252;-83
2021/06/15 02:41:14;;;;;;;4.17;3.17;;;18.00;27.30;;;;;;10442767;28;20757;-83
2021/06/15 02:46:21;;;;;;;2.90;2.70;;;18.00;27.10;;;;;;10444605;28;20228;-83
2021/06/15 02:51:27;;;;;;;3.43;3.13;;;17.80;27.70;;;;;;10446680;28;20693;-83
2021/06/15 02:56:33;;;;;;;4.70;2.97;;;17.60;27.40;;;;;;10444410;28;20597;-83
2021/06/15 03:01:38;;;;;;;3.20;2.90;;;17.50;27.50;;;;;;10443439;28;20239;-83
2021/06/15 03:06:41;;;;;;;3.47;2.80;;;17.40;27.70;;;;;;10444863;28;20278;-82
2021/06/15 03:11:48;;;;;;;3.50;3.20;;;17.30;27.50;;;;;;10442344;28;20232;-83
2021/06/15 03:16:58;;;;;;;3.33;3.00;;;17.20;28.20;;;;;;10440971;28;20717;-83
2021/06/15 03:22:13;;;;;;;3.37;2.70;;;17.20;28.80;;;;;;10440283;28;20243;-84
2021/06/15 03:27:20;;;;;;;3.67;2.83;;;17.10;28.70;;;;;;10452666;28;20632;-83
2021/06/15 03:32:26;;;;;;;4.77;3.43;;;16.90;28.60;;;;;;10451447;28;20276;-84
2021/06/15 03:37:30;;;;;;;3.50;3.20;;;16.70;28.60;;;;;;10445684;28;20228;-83
2021/06/15 03:42:38;;;;;;;3.57;3.27;;;16.60;28.60;;;;;;10451340;28;20232;-83
2021/06/15 03:47:44;;;;;;;3.70;3.40;;;16.50;28.60;;;;;;10452709;28;20240;-83
2021/06/15 03:52:52;;;;;;;3.73;3.30;;;16.40;29.30;;;;;;10450355;28;20610;-83
2021/06/15 03:57:56;;;;;;;3.40;3.10;;;16.40;29.60;;;;;;10447888;28;20225;-84
2021/06/15 04:03:04;;;;;;;3.67;3.37;;;16.50;29.00;;;;;;10448015;28;20249;-83
2021/06/15 04:08:11;;;;;;;3.30;3.10;;;16.50;29.70;;;;;;10446848;28;20224;-83
2021/06/15 04:13:15;;;;;;;3.60;3.30;;;16.50;29.20;;;;;;10451027;28;20240;-84
2021/06/15 04:18:23;;;;;;;3.90;3.30;;;16.50;29.40;;;;;;10446949;28;20632;-84
2021/06/15 04:23:31;;;;;;;3.90;3.50;;;16.60;30.00;;;;;;10444447;28;20224;-81
2021/06/15 04:28:35;;;;;;;4.03;3.63;;;16.50;30.00;;;;;;10449565;28;20717;-80
2021/06/15 04:33:46;;;;;;;4.77;3.93;;;16.50;29.60;;;;;;10447538;28;20415;-83
2021/06/15 04:38:55;;;;;;;4.80;4.27;;;16.40;30.60;;;;;;10447850;28;20239;-86
2021/06/15 04:44:03;;;;;;;4.33;3.93;;;16.30;30.90;;;;;;10449851;28;20243;-85
2021/06/15 04:49:11;;;;;;;4.83;4.27;;;16.40;31.50;;;;;;10447877;28;20248;-83
2021/06/15 04:54:19;;;;;;;3.93;3.07;;;16.40;31.70;;;;;;10447801;28;20232;-83
2021/06/15 04:59:23;;;;;;;6.10;4.10;;;16.50;30.80;;;;;;10447220;28;20244;-83
2021/06/15 05:04:29;;;;;;;5.13;4.23;;;16.60;31.40;;;;;;10447270;28;20701;-83
2021/06/15 05:09:35;;;;;;;4.83;4.33;;;16.70;31.90;;;;;;10444238;28;20607;-83
2021/06/15 05:14:42;;;;;;;5.20;3.90;;;16.90;32.30;;;;;;10447096;28;20309;-84
2021/06/15 05:19:47;;;;;;;4.50;3.70;;;17.10;32.00;;;;;;10448198;28;20225;-83
2021/06/15 05:24:51;;;;;;;4.60;3.80;;;17.30;32.10;;;;;;10434142;28;20244;-83
2021/06/15 05:29:55;;;;;;;7.17;4.33;;;17.60;32.00;;;;;;10448804;28;20225;-83
2021/06/15 05:35:03;;;;;;;6.77;4.03;;;17.80;31.70;;;;;;10446850;28;20224;-82
2021/06/15 05:40:08;;;;;;;4.60;4.20;;;18.00;32.20;;;;;;10444003;28;20231;-83
2021/06/15 05:45:13;;;;;;;5.33;4.07;;;18.30;31.80;;;;;;10441822;28;20229;-83
2021/06/15 05:50:17;;;;;;;6.03;3.97;;;18.50;31.60;;;;;;10444027;28;20591;-82
2021/06/15 05:55:21;;;;;;;4.53;4.13;;;18.80;31.60;;;;;;10441620;28;20236;-79
2021/06/15 06:00:24;;;;;;;4.30;3.90;;;19.00;30.90;;;;;;10436714;28;20240;-76
2021/06/15 06:10:52;;;;;;;4.73;4.33;;;19.40;31.70;;;;;;10428107;28;20311;-76
2021/06/15 06:15:59;;;;;;;5.33;4.87;;;19.60;31.20;;;;;;10436094;28;20602;-76
2021/06/15 06:21:06;;;;;;;4.97;4.57;;;19.80;32.30;;;;;;10436002;28;20259;-76
2021/06/15 06:26:09;;;;;;;4.87;3.73;;;20.00;31.80;;;;;;10440419;28;20229;-76
2021/06/15 06:31:13;;;;;;;3.70;3.40;;;20.20;30.80;;;;;;10444551;28;20308;-76
2021/06/15 06:36:22;;;;;;;5.13;3.73;;;20.30;30.40;;;;;;10427671;28;20233;-76
2021/06/15 06:41:27;;;;;;;3.73;3.13;;;20.60;30.60;;;;;;10438132;28;20610;-76
2021/06/15 06:46:30;;;;;;;3.90;3.07;;;20.70;30.40;;;;;;10436908;28;20230;-76
2021/06/15 06:51:36;;;;;;;4.77;3.43;;;20.90;30.10;;;;;;10432255;28;20260;-76
2021/06/15 06:56:39;;;;;;;3.97;2.77;;;21.20;29.90;;;;;;10440947;28;20232;-76
2021/06/15 07:01:42;;;;;;;4.43;2.60;;;21.40;29.50;;;;;;10434137;28;20232;-76
2021/06/15 07:06:47;;;;;;;5.23;3.40;;;21.60;29.50;;;;;;10427944;28;20251;-76
2021/06/15 07:11:50;;;;;;;3.70;3.03;;;21.80;29.10;;;;;;10439960;28;20888;-76
2021/06/15 07:16:53;;;;;;;2.90;2.60;;;22.00;29.00;;;;;;10439921;28;20246;-76
2021/06/15 07:21:58;;;;;;;3.17;2.60;;;22.30;28.90;;;;;;10440862;28;20751;-76
2021/06/15 07:27:02;;;;;;;3.23;2.77;;;22.50;28.60;;;;;;10436540;28;20221;-77
2021/06/15 07:32:06;;;;;;;3.07;2.50;;;22.70;28.50;;;;;;10437292;28;20245;-77
2021/06/15 07:37:11;;;;;;;2.83;2.47;;;23.00;28.30;;;;;;10441090;28;20229;-76
2021/06/15 07:42:14;;;;;;;3.00;2.70;;;23.30;27.60;;;;;;10440716;28;20813;-76
2021/06/15 07:47:17;;;;;;;3.40;3.03;;;23.60;27.80;;;;;;10438952;28;20236;-76
2021/06/15 07:52:27;;;;;;;3.43;3.13;;;23.90;28.00;;;;;;10436093;28;20265;-76
2021/06/15 07:57:30;;;;;;;2.93;2.63;;;24.10;27.50;;;;;;10436230;28;20572;-75
2021/06/15 08:02:33;;;;;;;3.30;3.00;;;24.40;27.80;;;;;;10432878;28;20736;-75
2021/06/15 08:07:38;;;;;;;4.67;2.97;;;24.60;27.70;;;;;;10437792;28;20233;-75
2021/06/15 08:12:41;;;;;;;3.90;3.47;;;24.90;27.70;;;;;;10442526;28;20776;-75
2021/06/15 08:17:45;;;;;;;4.63;3.20;;;25.20;27.70;;;;;;10452436;28;20278;-76
2021/06/15 08:22:51;;;;;;;3.50;3.20;;;25.40;27.50;;;;;;10447392;28;20228;-76
2021/06/15 08:27:54;;;;;;;4.67;3.00;;;25.70;27.00;;;;;;10438585;28;20224;-75
2021/06/15 08:32:58;;;;;;;5.10;3.37;;;25.90;26.80;;;;;;10449125;28;20229;-76
2021/06/15 08:38:03;;;;;;;4.53;3.53;;;26.10;26.60;;;;;;10440266;28;20592;-76
2021/06/15 08:43:06;;;;;;;3.50;3.20;;;26.40;26.00;;;;;;10447626;28;20860;-75
2021/06/15 08:48:11;;;;;;;3.90;3.40;;;26.60;25.80;;;;;;10442286;28;20591;-75
2021/06/15 08:53:16;;;;;;;4.40;3.27;;;26.70;25.50;;;;;;10436720;28;20225;-75
2021/06/15 08:58:34;;;;;;;3.10;2.77;;;26.80;25.20;;;;;;10442983;28;20236;-74
2021/06/15 09:03:38;;;;;;;3.53;3.20;;;27.00;24.70;;;;;;10438514;28;20234;-75
2021/06/15 09:08:57;;;;;;;2.90;2.70;;;27.20;24.60;;;;;;10441534;28;20616;-74
2021/06/15 09:14:00;;;;;;;2.77;2.33;;;27.30;23.40;;;;;;10445500;28;20278;-75
2021/06/15 09:19:16;;;;;;;2.70;2.50;;;27.50;24.10;;;;;;10447943;28;20225;-75
2021/06/15 09:24:25;;;;;;;3.77;2.70;;;27.70;23.20;;;;;;10444837;28;20754;-75
2021/06/15 09:29:36;;;;;;;2.93;2.67;;;28.00;22.90;;;;;;10446241;28;20247;-74
2021/06/15 09:34:53;;;;;;;2.60;2.40;;;28.30;22.40;;;;;;10450681;28;20237;-74
2021/06/15 09:39:58;;;;;;;2.70;2.50;;;28.60;21.90;;;;;;10439450;28;20228;-74
2021/06/15 09:45:17;;;;;;;4.03;2.40;;;28.90;22.20;;;;;;10445631;28;20233;-74
2021/06/15 09:50:24;;;;;;;2.77;2.20;;;29.10;21.10;;;;;;10438546;28;20231;-75
2021/06/15 09:55:29;;;;;;;2.70;2.50;;;29.30;20.80;;;;;;10438653;28;20267;-75
2021/06/15 10:00:33;;;;;;;2.53;2.33;;;29.40;20.80;;;;;;10445645;28;20263;-75
2021/06/15 10:05:38;;;;;;;2.70;2.40;;;29.60;21.00;;;;;;10441992;28;20240;-74
2021/06/15 10:10:46;;;;;;;3.00;2.57;;;29.70;20.90;;;;;;10440560;28;20228;-74
2021/06/15 10:15:50;;;;;;;2.33;2.13;;;29.80;20.40;;;;;;10437142;28;20291;-75
2021/06/15 10:20:53;;;;;;;2.60;2.37;;;30.00;20.90;;;;;;10441045;28;20233;-75
2021/06/15 10:25:59;;;;;;;3.67;2.63;;;30.20;21.20;;;;;;10441523;28;20243;-74
2021/06/15 10:31:03;;;;;;;3.40;2.73;;;30.30;19.80;;;;;;10444876;28;20235;-75
2021/06/15 10:36:07;;;;;;;3.00;2.70;;;30.40;20.20;;;;;;10441242;28;20267;-75
2021/06/15 10:41:21;;;;;;;2.80;2.60;;;30.50;20.20;;;;;;10445739;28;20591;-75
2021/06/15 10:46:37;;;;;;;2.90;2.70;;;30.60;19.20;;;;;;10441337;28;20251;-75
2021/06/15 10:51:52;;;;;;;3.00;2.70;;;30.80;19.00;;;;;;10445836;28;20224;-75
2021/06/15 10:57:24;;;;;;;3.23;2.90;;;30.90;18.20;;;;;;10443796;28;20228;-75
2021/06/15 11:02:31;;;;;;;2.73;2.53;;;31.00;18.70;;;;;;10438061;28;20229;-74
2021/06/15 11:07:38;;;;;;;5.13;2.70;;;31.00;19.10;;;;;;10443462;28;20220;-75
2021/06/15 11:12:48;;;;;;;4.30;2.80;;;30.90;18.90;;;;;;10443628;28;20238;-75
2021/06/15 11:17:59;;;;;;;3.73;2.60;;;31.00;18.10;;;;;;10442537;28;20298;-74
2021/06/15 11:23:33;;;;;;;2.87;2.43;;;31.10;18.60;;;;;;10445137;28;20235;-76
2021/06/15 11:28:43;;;;;;;2.97;2.67;;;31.10;18.10;;;;;;10449372;28;20221;-75
2021/06/15 11:34:23;;;;;;;4.57;2.70;;;31.20;17.70;;;;;;10430589;28;20232;-75
2021/06/15 11:39:37;;;;;;;4.03;2.50;;;31.30;18.10;;;;;;10397793;28;20674;-74
2021/06/15 11:44:57;;;;;;;2.80;2.60;;;31.30;17.30;;;;;;10400923;28;20234;-75
2021/06/15 11:50:13;;;;;;;3.37;2.80;;;31.40;17.50;;;;;;10407376;28;20229;-74
2021/06/15 11:55:17;;;;;;;3.10;2.57;;;31.40;17.40;;;;;;10438892;28;20232;-74
2021/06/15 12:00:23;;;;;;;3.57;2.80;;;31.40;17.80;;;;;;10445190;28;20229;-75
2021/06/15 12:05:26;;;;;;;3.33;2.40;;;31.50;17.20;;;;;;10436367;28;20684;-75
2021/06/15 12:10:30;;;;;;;2.87;2.67;;;31.50;17.80;;;;;;10423817;28;20229;-74
2021/06/15 12:15:44;;;;;;;2.97;2.67;;;31.60;17.80;;;;;;10438066;28;20233;-73
2021/06/15 12:20:49;;;;;;;3.00;2.70;;;31.70;16.90;;;;;;10428594;28;20240;-74
2021/06/15 12:25:54;;;;;;;3.03;2.77;;;31.70;17.30;;;;;;10438279;28;20233;-74
2021/06/15 12:31:14;;;;;;;2.80;2.60;;;31.70;17.10;;;;;;10431944;28;20236;-74
2021/06/15 12:36:20;;;;;;;3.10;2.73;;;31.70;17.00;;;;;;10431174;28;20241;-74
2021/06/15 12:41:25;;;;;;;3.40;3.10;;;31.60;16.40;;;;;;10438312;28;20241;-74
2021/06/15 12:46:31;;;;;;;3.13;2.83;;;31.60;17.00;;;;;;10432494;28;20232;-74
2021/06/15 12:51:44;;;;;;;2.70;2.50;;;31.50;16.10;;;;;;10433102;28;20245;-74
2021/06/15 12:56:59;;;;;;;4.40;2.60;;;31.50;16.80;;;;;;10432633;28;20236;-73
2021/06/15 13:02:12;;;;;;;2.80;2.60;;;31.50;16.70;;;;;;10430314;28;20230;-74
2021/06/15 13:07:16;;;;;;;2.97;2.50;;;31.50;16.90;;;;;;10428454;28;20237;-74
2021/06/15 13:12:21;;;;;;;3.17;2.87;;;31.60;17.10;;;;;;10436364;28;20245;-74
2021/06/15 13:17:27;;;;;;;3.83;2.87;;;31.70;16.70;;;;;;10430297;28;20248;-74
2021/06/15 13:22:50;;;;;;;3.47;2.60;;;31.70;16.60;;;;;;10429236;28;20590;-74
2021/06/15 13:27:56;;;;;;;3.30;3.00;;;31.80;16.80;;;;;;10434351;28;20225;-74
2021/06/15 13:33:10;;;;;;;2.70;2.50;;;31.80;16.00;;;;;;10435865;28;20229;-74
2021/06/15 13:38:19;;;;;;;4.00;2.93;;;31.80;15.60;;;;;;10441543;28;20706;-74
2021/06/15 13:43:24;;;;;;;3.50;3.00;;;31.90;16.50;;;;;;10442772;28;20596;-74
2021/06/15 13:48:29;;;;;;;2.90;2.60;;;31.90;16.40;;;;;;10439115;28;20236;-74
2021/06/15 13:53:32;;;;;;;2.80;2.60;;;31.90;16.40;;;;;;10444999;28;20239;-74
2021/06/15 13:58:36;;;;;;;3.00;2.70;;;31.80;16.60;;;;;;10443790;28;20717;-74
2021/06/15 14:03:40;;;;;;;3.07;2.70;;;31.90;16.30;;;;;;10427076;28;20247;-74
2021/06/15 14:08:44;;;;;;;3.00;2.80;;;31.90;16.20;;;;;;10429708;28;20968;-74
2021/06/15 14:13:47;;;;;;;2.80;2.60;;;32.10;17.00;;;;;;10434592;28;20229;-74
2021/06/15 14:18:52;;;;;;;3.20;2.90;;;32.20;16.50;;;;;;10433591;28;20232;-74
2021/06/15 14:23:55;;;;;;;3.17;2.87;;;32.30;16.10;;;;;;10432276;28;20885;-74
2021/06/15 14:28:58;;;;;;;3.10;2.83;;;32.40;16.00;;;;;;10427541;28;20233;-74
2021/06/15 14:34:02;;;;;;;2.90;2.47;;;32.50;15.90;;;;;;10428233;28;20240;-74
2021/06/15 14:39:06;;;;;;;2.97;2.50;;;32.50;15.60;;;;;;10424885;28;20316;-74
2021/06/15 14:44:09;;;;;;;3.23;2.93;;;32.50;15.80;;;;;;10431125;28;20236;-74
2021/06/15 14:49:14;;;;;;;2.53;2.37;;;32.60;15.60;;;;;;10418885;28;20601;-74
2021/06/15 14:54:17;;;;;;;5.63;2.80;;;32.50;15.30;;;;;;10428505;28;20595;-74
2021/06/15 14:59:23;;;;;;;2.50;2.40;;;32.40;15.40;;;;;;10428989;28;20231;-74
2021/06/15 15:04:28;;;;;;;3.43;2.70;;;32.40;15.30;;;;;;10437264;28;20232;-73
2021/06/15 15:09:31;;;;;;;2.77;2.57;;;32.30;15.40;;;;;;10438657;28;20235;-74
2021/06/15 15:14:34;;;;;;;2.60;2.40;;;32.40;15.80;;;;;;10429789;28;20235;-74
2021/06/15 15:19:40;;;;;;;3.20;2.80;;;32.40;15.60;;;;;;10425348;28;20241;-73
2021/06/15 15:24:43;;;;;;;2.93;2.63;;;32.50;14.90;;;;;;10480405;23;20222;-74
2021/06/15 15:29:46;;;;;;;2.40;2.20;;;32.50;15.40;;;;;;10491147;28;20707;-73
2021/06/15 15:34:51;;;;;;;2.63;2.30;;;32.60;15.50;;;;;;10486469;28;20242;-74
2021/06/15 15:39:54;;;;;;;2.27;2.10;;;32.60;14.70;;;;;;10480583;28;20291;-73
2021/06/15 15:45:03;;;;;;;2.30;2.10;;;32.60;14.90;;;;;;10485752;28;20228;-73
2021/06/15 15:50:13;;;;;;;2.33;2.13;;;32.70;14.60;;;;;;10482355;28;20658;-73
2021/06/15 15:55:17;;;;;;;2.60;2.30;;;32.70;14.40;;;;;;10479510;28;20599;-73
2021/06/15 16:00:22;;;;;;;2.83;2.07;;;32.80;14.90;;;;;;10479596;28;20228;-73
2021/06/15 16:05:27;;;;;;;2.60;2.20;;;32.80;14.40;;;;;;10477776;28;20245;-74
2021/06/15 16:10:30;;;;;;;2.17;1.93;;;32.80;14.00;;;;;;10485864;28;20227;-74
2021/06/15 16:15:33;;;;;;;2.47;1.70;;;32.80;14.20;;;;;;10484857;28;20232;-73
2021/06/15 16:20:39;;;;;;;2.63;1.60;;;32.90;14.10;;;;;;10480266;28;20224;-74
2021/06/15 16:25:42;;;;;;;1.70;1.60;;;32.90;13.80;;;;;;10482403;28;20239;-74
2021/06/15 16:30:46;;;;;;;2.10;2.00;;;32.90;14.10;;;;;;10478662;28;20228;-74
2021/06/15 16:35:50;;;;;;;1.93;1.80;;;33.10;14.00;;;;;;10477154;28;20664;-73
2021/06/15 16:40:54;;;;;;;2.03;1.83;;;33.10;13.40;;;;;;10472878;28;20609;-74
2021/06/15 16:45:57;;;;;;;1.87;1.77;;;33.10;13.10;;;;;;10472060;28;20697;-73
2021/06/15 16:51:02;;;;;;;1.90;1.80;;;33.20;13.10;;;;;;10476266;28;20244;-72
2021/06/15 16:56:05;;;;;;;2.20;2.00;;;33.20;12.30;;;;;;10479129;28;20230;-73
2021/06/15 17:01:09;;;;;;;2.17;2.00;;;33.20;13.00;;;;;;10476147;28;20583;-76
2021/06/15 17:06:13;;;;;;;4.43;2.00;;;33.20;13.10;;;;;;10465426;28;20620;-76
2021/06/15 17:11:20;;;;;;;2.80;2.10;;;33.20;12.90;;;;;;10470356;28;20230;-77
2021/06/15 17:16:23;;;;;;;2.60;2.10;;;33.30;13.20;;;;;;10464398;28;20242;-77
2021/06/15 17:21:31;;;;;;;2.40;2.20;;;33.30;13.20;;;;;;10472219;28;20237;-78
2021/06/15 17:26:34;;;;;;;3.73;2.40;;;33.30;12.80;;;;;;10476305;28;20237;-78
2021/06/15 17:31:38;;;;;;;2.50;2.40;;;33.30;13.10;;;;;;10482249;28;20717;-74
2021/06/15 17:36:43;;;;;;;2.97;2.30;;;33.30;13.00;;;;;;10479588;28;20283;-75
2021/06/15 17:41:46;;;;;;;2.70;2.50;;;33.20;12.80;;;;;;10487917;28;20241;-75
2021/06/15 17:46:49;;;;;;;3.43;2.67;;;33.30;13.20;;;;;;10484906;28;20233;-79
2021/06/15 17:51:54;;;;;;;2.83;2.27;;;33.30;13.30;;;;;;10468275;28;20240;-75
2021/06/15 17:56:57;;;;;;;2.90;2.70;;;33.20;13.50;;;;;;10474509;28;20234;-74
2021/06/15 18:02:01;;;;;;;3.70;2.60;;;33.10;14.00;;;;;;10477465;28;20232;-76
2021/06/15 18:07:09;;;;;;;4.60;2.40;;;33.10;14.20;;;;;;10486707;28;20225;-79
2021/06/15 18:12:13;;;;;;;3.07;2.47;;;32.90;14.40;;;;;;10492314;28;20228;-78
2021/06/15 18:17:16;;;;;;;2.80;2.60;;;32.80;14.50;;;;;;10481271;28;20232;-79
2021/06/15 18:22:21;;;;;;;2.87;2.60;;;32.60;14.60;;;;;;10479048;28;20244;-79
2021/06/15 18:27:24;;;;;;;3.17;2.50;;;32.40;14.90;;;;;;10484536;28;20231;-75
2021/06/15 18:32:27;;;;;;;3.33;2.60;;;32.20;14.90;;;;;;10480526;28;20613;-74
2021/06/15 18:37:32;;;;;;;2.87;2.60;;;32.00;15.30;;;;;;10472919;28;20782;-75
2021/06/15 18:42:36;;;;;;;3.37;2.87;;;31.80;16.00;;;;;;10468525;28;20233;-75
2021/06/15 18:47:39;;;;;;;3.00;2.80;;;31.50;16.00;;;;;;10470904;28;20232;-74
2021/06/15 18:52:45;;;;;;;3.83;2.70;;;31.30;16.20;;;;;;10479483;28;20224;-75
2021/06/15 18:57:48;;;;;;;3.30;3.00;;;31.10;16.50;;;;;;10475032;28;20224;-74
2021/06/15 19:02:51;;;;;;;2.93;2.73;;;30.90;16.60;;;;;;10472662;28;20237;-75
2021/06/15 19:07:56;;;;;;;2.70;2.50;;;30.70;16.90;;;;;;10479266;28;20220;-74
2021/06/15 19:13:01;;;;;;;3.27;2.60;;;30.60;17.50;;;;;;10470562;28;20236;-74
2021/06/15 19:18:05;;;;;;;2.83;2.63;;;30.40;17.40;;;;;;10477007;28;20231;-74
2021/06/15 19:23:10;;;;;;;2.80;2.53;;;30.10;17.20;;;;;;10482513;28;20254;-75
2021/06/15 19:28:13;;;;;;;3.53;2.80;;;29.90;17.70;;;;;;10483649;28;20220;-74
2021/06/15 19:33:16;;;;;;;3.10;2.60;;;29.60;17.70;;;;;;10469892;28;20232;-75
2021/06/15 19:38:21;;;;;;;2.93;2.73;;;29.50;17.90;;;;;;10469678;28;20581;-74
2021/06/15 19:43:24;;;;;;;2.60;2.40;;;29.30;18.40;;;;;;10468366;28;20252;-74
2021/06/15 19:48:28;;;;;;;2.77;2.57;;;29.20;18.40;;;;;;10466044;28;20278;-74
2021/06/15 19:53:33;;;;;;;2.80;2.60;;;29.10;18.50;;;;;;10468653;28;20596;-76
2021/06/15 19:58:36;;;;;;;3.50;3.20;;;28.90;18.80;;;;;;10475139;28;20224;-76
2021/06/15 20:03:39;;;;;;;3.27;2.97;;;28.80;18.70;;;;;;10475211;28;20231;-77
2021/06/15 20:08:44;;;;;;;3.03;2.83;;;28.70;18.80;;;;;;10471609;28;20784;-76
2021/06/15 20:13:47;;;;;;;2.93;2.73;;;28.50;19.40;;;;;;10471969;28;20243;-76
2021/06/15 20:18:50;;;;;;;3.07;2.87;;;28.30;19.20;;;;;;10481453;28;20231;-74
2021/06/15 20:23:55;;;;;;;3.80;3.43;;;28.20;19.40;;;;;;10480062;28;20228;-75
2021/06/15 20:29:01;;;;;;;3.60;3.03;;;27.90;20.00;;;;;;10478041;28;20259;-74
2021/06/15 20:34:05;;;;;;;3.40;3.10;;;27.60;19.90;;;;;;10475587;28;20311;-75
2021/06/15 20:39:10;;;;;;;3.53;3.00;;;27.20;19.70;;;;;;10472250;28;20231;-74
2021/06/15 20:44:14;;;;;;;4.00;3.60;;;26.80;20.50;;;;;;10473512;28;20239;-75
2021/06/15 20:49:17;;;;;;;3.83;3.13;;;26.50;20.80;;;;;;10475263;28;20635;-77
2021/06/15 20:54:22;;;;;;;4.07;3.00;;;26.30;21.00;;;;;;10479897;28;20238;-78
2021/06/15 20:59:25;;;;;;;3.50;3.20;;;26.10;21.50;;;;;;10478277;28;20614;-78
2021/06/15 21:04:29;;;;;;;4.00;3.50;;;26.10;21.30;;;;;;10472349;28;20235;-77
2021/06/15 21:09:33;;;;;;;3.63;3.20;;;26.10;21.60;;;;;;10477188;28;20705;-77
2021/06/15 21:14:37;;;;;;;5.50;3.23;;;26.00;22.00;;;;;;10475772;28;20727;-77
2021/06/15 21:19:40;;;;;;;3.23;3.03;;;26.00;21.90;;;;;;10467717;28;20232;-77
2021/06/15 21:24:45;;;;;;;4.07;3.10;;;26.00;21.90;;;;;;10470546;28;20725;-77
2021/06/15 21:29:48;;;;;;;4.40;3.60;;;25.90;22.40;;;;;;10470486;28;20311;-77
2021/06/15 21:34:51;;;;;;;3.97;3.60;;;25.80;22.10;;;;;;10470280;28;20228;-77
2021/06/15 21:39:57;;;;;;;3.33;3.10;;;25.60;22.20;;;;;;10464308;28;20240;-77
2021/06/15 21:45:00;;;;;;;3.93;3.63;;;25.40;22.80;;;;;;10473333;28;20233;-77
2021/06/15 21:50:04;;;;;;;5.17;3.10;;;25.20;22.40;;;;;;10467663;28;20229;-77
2021/06/15 21:55:11;;;;;;;4.03;3.57;;;25.00;22.70;;;;;;10466481;28;20740;-77
2021/06/15 22:00:17;;;;;;;3.30;3.00;;;24.70;23.50;;;;;;10467562;28;20725;-77
2021/06/15 22:05:20;;;;;;;3.70;3.00;;;24.50;23.50;;;;;;10468652;28;20236;-77
2021/06/15 22:10:25;;;;;;;2.90;2.70;;;24.30;23.20;;;;;;10473719;28;20232;-77
2021/06/15 22:15:28;;;;;;;3.17;2.93;;;24.30;23.80;;;;;;10467042;28;20237;-77
2021/06/15 22:20:31;;;;;;;3.10;2.67;;;24.30;23.60;;;;;;10473483;28;20247;-77
2021/06/15 22:25:37;;;;;;;3.23;2.90;;;24.30;23.60;;;;;;10473026;28;20228;-77
2021/06/15 22:30:41;;;;;;;3.27;2.97;;;24.30;24.20;;;;;;10466306;28;20708;-77
2021/06/15 22:35:44;;;;;;;3.30;3.00;;;24.30;23.70;;;;;;10467778;28;20232;-77
2021/06/15 22:40:49;;;;;;;3.40;3.10;;;24.30;23.90;;;;;;10470689;28;20232;-77
2021/06/15 22:45:52;;;;;;;4.43;3.43;;;24.20;24.20;;;;;;10471122;28;20259;-77
2021/06/15 22:50:55;;;;;;;4.40;4.00;;;24.10;24.00;;;;;;10465338;28;20316;-77
2021/06/15 22:55:59;;;;;;;4.47;3.90;;;24.00;24.00;;;;;;10465774;28;20910;-77
2021/06/15 23:01:04;;;;;;;3.93;3.57;;;23.70;24.50;;;;;;10462127;28;20315;-77
2021/06/15 23:06:08;;;;;;;4.93;3.40;;;23.50;24.40;;;;;;10470037;28;20232;-77
2021/06/15 23:11:13;;;;;;;3.27;3.03;;;23.50;24.60;;;;;;10467618;28;20221;-77
2021/06/15 23:16:16;;;;;;;3.73;3.37;;;23.40;25.00;;;;;;10473473;28;20232;-77
2021/06/15 23:21:20;;;;;;;3.80;3.20;;;23.40;24.90;;;;;;10465854;28;20289;-77
2021/06/15 23:26:24;;;;;;;5.20;3.60;;;23.30;24.80;;;;;;10465632;28;20225;-77
2021/06/15 23:31:27;;;;;;;5.03;3.50;;;23.30;25.30;;;;;;10464567;28;20240;-77
2021/06/15 23:36:31;;;;;;;4.87;3.63;;;23.20;25.00;;;;;;10464616;28;20340;-77
2021/06/15 23:41:35;;;;;;;3.60;3.30;;;23.10;25.10;;;;;;10472315;28;20250;-77
2021/06/15 23:46:38;;;;;;;3.93;3.57;;;23.00;25.60;;;;;;10477636;28;20235;-77
2021/06/15 23:51:42;;;;;;;3.53;3.23;;;22.90;25.30;;;;;;10476129;28;20307;-77
2021/06/15 23:56:46;;;;;;;4.43;3.47;;;22.90;25.50;;;;;;10473404;28;20233;-77
